Time;durP1;ratioP1;P1;durP2;ratioP2;P2;SDS_P1;SDS_P2;PMS_P1;PMS_P2;Temp;Humidity;BMP_temperature;BMP_pressure;BME280_temperature;BME280_humidity;BME280_pressure;Samples;Min_cycle;Max_cycle;Signal;HPM_P1;HPM_P2
2023/06/08 00:00:59;;;;;;;;;12.50;12.50;;;;;23.68;37.87;101058.09;4959543;28;45369;-55
2023/06/08 00:03:26;;;;;;;;;14.00;11.00;;;;;23.68;37.28;101055.44;4959760;28;45486;-57
2023/06/08 00:05:52;;;;;;;;;14.50;11.75;;;;;23.68;37.54;101052.81;4960203;28;45488;-57
2023/06/08 00:08:18;;;;;;;;;13.00;11.25;;;;;23.67;37.91;101045.81;4966228;28;45421;-52
2023/06/08 00:10:46;;;;;;;;;13.25;12.50;;;;;23.66;37.73;101046.75;4971777;28;45861;-52
2023/06/08 00:13:13;;;;;;;;;13.50;11.25;;;;;23.65;37.93;101042.41;4967977;28;44842;-55
2023/06/08 00:15:39;;;;;;;;;11.75;11.75;;;;;23.63;37.56;101033.75;4965520;28;45575;-56
2023/06/08 00:18:08;;;;;;;;;11.25;11.25;;;;;23.63;38.03;101044.34;4966781;28;46309;-55
2023/06/08 00:20:34;;;;;;;;;14.25;13.00;;;;;23.60;37.85;101034.78;4961288;28;45401;-56
2023/06/08 00:23:00;;;;;;;;;15.50;13.25;;;;;23.60;38.06;101039.22;4958974;28;45304;-49
2023/06/08 00:25:25;;;;;;;;;13.50;13.50;;;;;23.58;38.18;101039.34;4958688;28;45695;-51
2023/06/08 00:27:51;;;;;;;;;15.75;13.00;;;;;23.58;37.98;101035.84;4957676;28;45607;-53
2023/06/08 00:30:16;;;;;;;;;13.00;12.00;;;;;23.56;38.38;101029.78;4967223;28;60822;-56
2023/06/08 00:32:42;;;;;;;;;12.25;12.00;;;;;23.55;37.79;101036.88;4974328;28;45318;-50
2023/06/08 00:35:08;;;;;;;;;12.25;12.25;;;;;23.54;38.54;101023.75;4964938;28;45564;-53
2023/06/08 00:37:35;;;;;;;;;12.50;10.50;;;;;23.54;38.07;101021.09;4963345;28;47246;-52
2023/06/08 00:40:01;;;;;;;;;16.50;13.00;;;;;23.53;38.19;101024.72;4972054;28;45071;-49
2023/06/08 00:42:26;;;;;;;;;13.75;13.75;;;;;23.52;38.55;101015.91;4962246;28;45381;-49
2023/06/08 00:44:52;;;;;;;;;14.50;13.75;;;;;23.51;38.21;101023.97;4958954;28;45363;-55
2023/06/08 00:47:17;;;;;;;;;14.00;14.00;;;;;23.50;38.58;101016.97;4958167;28;46418;-54
2023/06/08 00:49:44;;;;;;;;;16.75;15.00;;;;;23.48;38.41;101011.78;4974236;28;44720;-56
2023/06/08 00:52:10;;;;;;;;;15.50;13.25;;;;;23.47;38.44;101013.56;4965723;28;45291;-54
2023/06/08 00:54:36;;;;;;;;;13.00;13.00;;;;;23.47;38.57;101010.94;4969446;28;44926;-56
2023/06/08 00:57:03;;;;;;;;;11.50;11.50;;;;;23.46;39.22;101011.88;4962338;28;46568;-55
2023/06/08 00:59:30;;;;;;;;;14.25;13.25;;;;;23.45;38.74;101010.16;4957992;28;45370;-51
2023/06/08 01:01:58;;;;;;;;;17.00;15.50;;;;;23.44;38.98;101007.63;4957882;28;45424;-54
2023/06/08 01:04:25;;;;;;;;;16.50;15.25;;;;;23.42;39.24;101010.41;4957873;28;45708;-55
2023/06/08 01:07:02;;;;;;;;;13.50;12.50;;;;;23.40;38.90;101009.63;4957589;28;47023;-55
2023/06/08 01:09:36;;;;;;;;;15.00;13.00;;;;;23.39;38.96;101005.28;4959049;28;45370;-53
2023/06/08 01:12:29;;;;;;;;;13.75;13.00;;;;;23.37;39.00;101009.84;4958900;28;45350;-52
2023/06/08 01:15:03;;;;;;;;;15.75;14.25;;;;;23.36;39.37;101005.47;4959505;28;45963;-57
2023/06/08 01:17:38;;;;;;;;;14.00;13.50;;;;;23.34;39.04;101007.38;4960354;28;46370;-54
2023/06/08 01:20:29;;;;;;;;;16.75;13.25;;;;;23.35;39.40;101008.25;4957974;28;45283;-55
2023/06/08 01:23:16;;;;;;;;;17.50;14.00;;;;;23.33;39.36;101013.59;4957539;28;45388;-49
2023/06/08 01:25:42;;;;;;;;;14.75;14.75;;;;;23.30;39.75;101005.91;4957796;28;45633;-50
2023/06/08 01:28:13;;;;;;;;;14.25;13.00;;;;;23.29;39.95;101009.50;4959974;28;47263;-52
2023/06/08 01:30:45;;;;;;;;;16.00;16.00;;;;;23.28;39.53;101013.91;4965257;28;45788;-52
2023/06/08 01:33:14;;;;;;;;;16.00;14.75;;;;;23.27;39.83;101004.28;4964217;28;45277;-53
2023/06/08 01:35:40;;;;;;;;;17.00;14.25;;;;;23.27;39.67;101006.91;4958979;28;45378;-50
2023/06/08 01:38:20;;;;;;;;;13.75;13.75;;;;;23.27;39.63;101006.91;4981492;28;46557;-50
2023/06/08 01:40:54;;;;;;;;;17.50;16.50;;;;;23.26;40.02;101010.50;4971985;28;45212;-53
2023/06/08 01:43:22;;;;;;;;;14.25;13.75;;;;;23.27;40.04;101006.09;4958138;28;45239;-52
2023/06/08 01:45:53;;;;;;;;;14.50;13.50;;;;;23.25;40.10;101013.25;4958309;28;45811;-53
2023/06/08 01:48:22;;;;;;;;;16.00;15.75;;;;;23.24;39.86;101011.56;4957132;28;46748;-52
2023/06/08 01:50:50;;;;;;;;;18.00;17.00;;;;;23.22;39.94;101014.31;4939705;28;45981;-49
2023/06/08 01:53:16;;;;;;;;;16.00;14.00;;;;;23.20;40.03;101002.16;4964582;28;45376;-51
2023/06/08 01:55:42;;;;;;;;;17.75;16.75;;;;;23.19;40.41;101006.56;4968710;28;45660;-50
2023/06/08 01:58:07;;;;;;;;;16.00;15.00;;;;;23.18;40.35;101007.47;4964661;28;46673;-51
2023/06/08 02:00:33;;;;;;;;;16.50;15.75;;;;;23.17;40.50;101017.22;4963545;28;45306;-49
2023/06/08 02:02:58;;;;;;;;;15.50;14.00;;;;;23.16;40.04;101009.38;4943672;28;45394;-55
2023/06/08 02:05:24;;;;;;;;;16.00;14.25;;;;;23.16;40.55;101015.53;4961565;28;45589;-48
2023/06/08 02:07:49;;;;;;;;;15.25;15.25;;;;;23.15;40.31;101019.13;4964395;28;47596;-56
2023/06/08 02:10:16;;;;;;;;;17.50;16.75;;;;;23.15;40.60;101019.13;4973883;28;45168;-53
2023/06/08 02:12:41;;;;;;;;;10.75;8.00;;;;;23.13;40.55;101014.88;4967281;28;45221;-49
2023/06/08 02:15:07;;;;;;;;;16.75;16.75;;;;;23.13;40.21;101022.81;4962915;28;45540;-52
2023/06/08 02:17:35;;;;;;;;;18.00;17.00;;;;;23.12;40.48;101016.66;4960671;28;46315;-50
2023/06/08 02:20:06;;;;;;;;;16.75;15.75;;;;;23.11;40.65;101016.75;4960995;28;45910;-50
2023/06/08 02:22:35;;;;;;;;;16.50;15.00;;;;;23.08;40.99;101017.81;4964745;28;45275;-47
2023/06/08 02:25:01;;;;;;;;;16.50;15.25;;;;;23.09;40.66;101022.16;4962788;28;45377;-50
2023/06/08 02:27:27;;;;;;;;;17.75;15.75;;;;;23.08;40.64;101011.66;4960625;28;45334;-51
2023/06/08 02:29:53;;;;;;;;;20.00;18.00;;;;;23.07;40.96;101016.13;4959916;28;45762;-52
2023/06/08 02:32:18;;;;;;;;;17.75;17.75;;;;;23.08;41.03;101016.94;4962183;28;45548;-54
2023/06/08 02:34:53;;;;;;;;;16.00;16.00;;;;;23.04;41.00;101008.38;4969703;28;45815;-54
2023/06/08 02:37:18;;;;;;;;;15.00;15.00;;;;;23.04;40.71;101011.00;4960292;28;46714;-54
2023/06/08 02:39:44;;;;;;;;;16.75;15.75;;;;;23.01;40.93;101000.63;4963998;28;45335;-54
2023/06/08 02:42:09;;;;;;;;;20.50;17.75;;;;;22.99;41.26;100997.22;4973638;28;46817;-49
2023/06/08 02:44:35;;;;;;;;;20.75;15.75;;;;;22.99;41.40;101007.81;4966366;28;45526;-49
2023/06/08 02:47:00;;;;;;;;;18.75;17.25;;;;;22.98;41.05;101001.69;4968800;28;46486;-54
2023/06/08 02:49:25;;;;;;;;;10.50;9.75;;;;;22.97;41.08;100993.84;4977893;28;59765;-54
2023/06/08 02:51:51;;;;;;;;;17.33;15.00;;;;;22.96;41.61;100998.28;4977994;28;48419;-52
2023/06/08 02:54:16;;;;;;;;;19.00;16.00;;;;;22.94;41.30;100999.31;4967916;28;45219;-54
2023/06/08 02:56:41;;;;;;;;;16.25;15.25;;;;;22.95;41.65;101001.03;4971789;28;46239;-50
2023/06/08 02:59:07;;;;;;;;;15.50;15.00;;;;;22.94;41.18;101004.63;4969043;28;45267;-52
2023/06/08 03:01:33;;;;;;;;;18.00;17.50;;;;;22.93;41.68;101002.91;4968246;28;45385;-50
2023/06/08 03:03:58;;;;;;;;;21.25;16.25;;;;;22.93;41.56;101002.91;4968376;28;45262;-49
2023/06/08 03:06:26;;;;;;;;;16.25;15.00;;;;;22.92;41.97;101003.84;4948636;28;46117;-49
2023/06/08 03:08:53;;;;;;;;;16.25;16.00;;;;;22.91;41.64;100999.50;4969201;28;45256;-50
2023/06/08 03:11:20;;;;;;;;;19.75;15.50;;;;;22.92;41.65;101006.50;4960624;28;45441;-51
2023/06/08 03:13:45;;;;;;;;;22.00;20.00;;;;;22.91;41.73;100997.75;4970615;28;45548;-52
2023/06/08 03:16:12;;;;;;;;;23.75;17.75;;;;;22.91;41.71;100992.44;4967721;28;45268;-49
2023/06/08 03:18:37;;;;;;;;;21.75;19.00;;;;;22.91;41.57;100995.09;4972104;28;45316;-49
2023/06/08 03:21:03;;;;;;;;;18.50;18.25;;;;;22.90;41.91;100990.75;4978146;28;45886;-50
2023/06/08 03:23:30;;;;;;;;;22.00;19.75;;;;;22.90;41.42;100995.16;4976016;28;53124;-50
2023/06/08 03:25:56;;;;;;;;;19.00;19.00;;;;;22.87;41.80;100996.22;4977349;28;46502;-54
2023/06/08 03:28:21;;;;;;;;;18.75;16.75;;;;;22.85;41.41;100991.03;4980085;28;45787;-47
2023/06/08 03:30:47;;;;;;;;;20.50;19.25;;;;;22.84;41.60;100991.13;4981249;28;50369;-51
2023/06/08 03:33:13;;;;;;;;;18.50;17.50;;;;;22.83;41.67;100984.13;4980844;28;45146;-53
2023/06/08 03:35:38;;;;;;;;;17.00;15.75;;;;;22.81;41.72;100980.75;4970718;28;46640;-51
2023/06/08 03:38:03;;;;;;;;;16.50;15.50;;;;;22.81;41.78;100988.69;4966778;28;45208;-53
2023/06/08 03:40:29;;;;;;;;;20.00;17.00;;;;;22.80;41.66;100997.56;4969927;28;52568;-51
2023/06/08 03:42:54;;;;;;;;;16.50;16.50;;;;;22.77;41.47;100988.00;4969958;28;45426;-53
2023/06/08 03:45:20;;;;;;;;;16.50;16.50;;;;;22.76;41.27;100990.75;4961526;28;46205;-52
2023/06/08 03:47:45;;;;;;;;;19.50;18.50;;;;;22.74;41.21;100987.34;4959957;28;45680;-51
2023/06/08 03:50:14;;;;;;;;;19.50;17.00;;;;;22.74;41.38;100987.34;4960757;28;45322;-52
2023/06/08 03:52:40;;;;;;;;;17.50;16.75;;;;;22.73;41.54;100985.66;4960240;28;45321;-51
2023/06/08 03:55:06;;;;;;;;;21.00;18.00;;;;;22.70;41.49;100982.28;4964606;28;46219;-50
2023/06/08 03:57:32;;;;;;;;;19.25;15.25;;;;;22.69;41.15;100979.72;4975630;28;45149;-50
2023/06/08 03:59:57;;;;;;;;;16.00;16.00;;;;;22.68;41.58;100978.03;4962801;28;45232;-50
2023/06/08 04:02:22;;;;;;;;;20.00;16.00;;;;;22.68;41.63;100981.53;4972383;28;45242;-51
2023/06/08 04:04:48;;;;;;;;;19.00;17.50;;;;;22.67;41.62;100981.59;4983153;28;51659;-52
2023/06/08 04:07:13;;;;;;;;;21.50;19.25;;;;;22.66;41.37;100982.53;4969221;28;45283;-51
2023/06/08 04:09:38;;;;;;;;;21.00;17.75;;;;;22.64;41.53;100977.38;4960963;28;45306;-51
2023/06/08 04:12:05;;;;;;;;;18.75;18.75;;;;;22.65;41.67;100986.16;4959564;28;45167;-55
2023/06/08 04:14:31;;;;;;;;;20.75;15.75;;;;;22.63;41.22;100980.94;4958663;28;45467;-54
2023/06/08 04:16:56;;;;;;;;;19.00;19.00;;;;;22.62;41.73;100981.06;4958836;28;45239;-50
2023/06/08 04:19:21;;;;;;;;;15.25;14.75;;;;;22.61;41.29;100972.25;4958926;28;45320;-53
2023/06/08 04:21:48;;;;;;;;;18.75;15.75;;;;;22.59;41.82;100968.03;4959030;28;45473;-53
2023/06/08 04:24:13;;;;;;;;;18.25;17.50;;;;;22.59;41.68;100970.66;4959117;28;46127;-53
2023/06/08 04:26:38;;;;;;;;;16.75;15.25;;;;;22.59;41.70;100978.59;4958830;28;45386;-53
2023/06/08 04:29:04;;;;;;;;;20.50;18.25;;;;;22.57;41.93;100975.19;4959024;28;45349;-55
2023/06/08 04:31:30;;;;;;;;;19.75;18.00;;;;;22.59;41.58;100973.31;4965886;28;45261;-52
2023/06/08 04:33:56;;;;;;;;;19.75;17.75;;;;;22.55;41.79;100970.84;4966056;28;46571;-52
2023/06/08 04:36:21;;;;;;;;;18.50;18.50;;;;;22.53;41.73;100970.13;4960384;28;45335;-50
2023/06/08 04:38:46;;;;;;;;;19.25;17.50;;;;;22.51;41.91;100971.13;4958965;28;45322;-53
2023/06/08 04:41:13;;;;;;;;;16.00;15.50;;;;;22.51;41.90;100977.28;4959450;28;45342;-54
2023/06/08 04:43:38;;;;;;;;;18.00;16.75;;;;;22.50;42.19;100982.66;4960083;28;47024;-53
2023/06/08 04:46:04;;;;;;;;;18.25;18.00;;;;;22.49;42.10;100984.44;4960141;28;45243;-52
2023/06/08 04:48:33;;;;;;;;;17.75;16.00;;;;;22.48;41.74;100982.75;4972383;28;45333;-52
2023/06/08 04:51:01;;;;;;;;;16.50;16.50;;;;;22.46;41.84;100983.78;4968668;28;45442;-56
2023/06/08 04:53:26;;;;;;;;;23.50;19.75;;;;;22.45;42.20;100984.75;4959320;28;45389;-57
2023/06/08 04:55:57;;;;;;;;;17.75;17.75;;;;;22.44;41.61;100981.22;4958324;28;45394;-56
2023/06/08 04:58:26;;;;;;;;;19.50;19.50;;;;;22.43;42.51;100978.69;4971244;28;45579;-52
2023/06/08 05:00:52;;;;;;;;;18.25;18.00;;;;;22.43;42.51;100986.63;4982202;28;45626;-50
2023/06/08 05:03:18;;;;;;;;;19.25;18.25;;;;;22.39;42.39;100978.84;4984681;28;45415;-52
2023/06/08 05:05:43;;;;;;;;;19.25;16.00;;;;;22.39;42.63;100985.94;4984365;28;45343;-53
2023/06/08 05:08:09;;;;;;;;;22.67;19.00;;;;;22.37;42.47;100980.75;4971537;28;47187;-51
2023/06/08 05:10:34;;;;;;;;;20.00;17.67;;;;;22.34;42.64;100970.38;4966589;28;45211;-51
2023/06/08 05:12:59;;;;;;;;;26.00;21.33;;;;;22.37;42.83;100979.88;4961295;28;48520;-51
2023/06/08 05:15:26;;;;;;;;;22.25;22.00;;;;;22.36;42.83;100983.47;4958087;28;45270;-48
2023/06/08 05:17:52;;;;;;;;;23.00;21.25;;;;;22.34;43.16;100994.13;4957962;28;45219;-51
2023/06/08 05:20:18;;;;;;;;;23.25;18.00;;;;;22.34;43.14;100990.63;4958442;28;45574;-51
2023/06/08 05:22:44;;;;;;;;;23.00;20.25;;;;;22.34;42.90;100991.50;4956795;28;47021;-51
2023/06/08 05:25:09;;;;;;;;;23.00;20.00;;;;;22.32;43.27;100989.91;4957912;28;45385;-48
2023/06/08 05:27:35;;;;;;;;;23.00;19.75;;;;;22.34;43.32;100990.63;4958023;28;45492;-50
2023/06/08 05:30:00;;;;;;;;;27.75;22.75;;;;;22.31;43.01;100981.09;4957875;28;45532;-51
2023/06/08 05:32:25;;;;;;;;;25.33;22.33;;;;;22.31;43.58;100980.28;4960971;28;64116;-51
2023/06/08 05:34:50;;;;;;;;;14.67;9.33;;;;;22.30;43.56;100982.03;4960262;28;49639;-52
2023/06/08 05:37:16;;;;;;;;;21.67;21.00;;;;;22.31;43.32;100985.56;4958124;28;53260;-50
2023/06/08 05:39:41;;;;;;;;;23.25;19.25;;;;;22.30;43.59;100983.84;4958468;28;45383;-52
2023/06/08 05:42:07;;;;;;;;;23.25;23.25;;;;;22.28;43.55;100981.28;4958187;28;46163;-52
2023/06/08 05:44:32;;;;;;;;;29.00;23.25;;;;;22.28;43.70;100976.00;4960511;28;45353;-48
2023/06/08 05:46:58;;;;;;;;;23.75;22.75;;;;;22.28;44.03;100983.09;4964585;28;45306;-48
2023/06/08 05:49:24;;;;;;;;;27.00;22.50;;;;;22.30;43.98;100973.28;4968585;28;45311;-51
2023/06/08 05:51:50;;;;;;;;;24.75;22.00;;;;;22.29;44.13;100974.22;4964818;28;46160;-52
2023/06/08 05:54:15;;;;;;;;;25.00;22.50;;;;;22.30;43.91;100974.13;4960820;28;45305;-56
2023/06/08 05:56:40;;;;;;;;;25.75;24.25;;;;;22.32;43.97;100971.41;4960046;28;45184;-54
2023/06/08 05:59:06;;;;;;;;;24.75;23.00;;;;;22.32;43.97;100968.78;4957412;28;45268;-51
2023/06/08 06:01:31;;;;;;;;;22.25;22.25;;;;;22.32;43.87;100977.53;4956985;28;47082;-52
2023/06/08 06:03:57;;;;;;;;;26.00;23.50;;;;;22.31;44.16;100970.53;4957219;28;45289;-56
2023/06/08 06:06:22;;;;;;;;;22.75;21.00;;;;;22.32;44.16;100969.59;4957727;28;45455;-54
2023/06/08 06:08:47;;;;;;;;;36.25;28.25;;;;;22.31;44.26;100965.25;4977412;28;44882;-51
2023/06/08 06:11:13;;;;;;;;;25.50;21.25;;;;;22.33;44.17;100973.94;4957184;28;47216;-52
2023/06/08 06:13:38;;;;;;;;;25.00;22.50;;;;;22.34;44.44;100969.50;4956322;28;45412;-51
2023/06/08 06:16:03;;;;;;;;;27.00;23.33;;;;;22.36;44.44;100968.50;4962147;28;45433;-51
2023/06/08 06:18:29;;;;;;;;;25.25;24.00;;;;;22.39;44.61;100967.44;4942465;28;45388;-53
2023/06/08 06:20:55;;;;;;;;;18.75;17.75;;;;;22.42;44.74;100963.78;4958510;28;45534;-52
2023/06/08 06:23:20;;;;;;;;;22.25;22.25;;;;;22.45;44.69;100953.88;4957333;28;45330;-52
2023/06/08 06:25:45;;;;;;;;;29.25;25.75;;;;;22.50;44.67;100953.59;4957976;28;45474;-50
2023/06/08 06:28:11;;;;;;;;;27.75;23.00;;;;;22.54;44.71;100955.94;4965607;28;45614;-48
2023/06/08 06:30:36;;;;;;;;;33.50;25.75;;;;;22.59;44.53;100958.34;4973165;28;45509;-48
2023/06/08 06:33:02;;;;;;;;;27.25;25.25;;;;;22.63;44.26;100959.81;4971366;28;45273;-48
2023/06/08 06:35:27;;;;;;;;;27.75;25.75;;;;;22.66;44.94;100958.78;4979169;28;45788;-49
2023/06/08 06:37:54;;;;;;;;;25.50;23.25;;;;;22.66;44.54;100959.63;4979949;28;44849;-52
2023/06/08 06:40:20;;;;;;;;;22.50;21.75;;;;;22.70;44.41;100960.28;4977021;28;46494;-52
2023/06/08 06:42:45;;;;;;;;;25.50;21.75;;;;;22.72;44.67;100958.41;4957852;28;45160;-52
2023/06/08 06:45:11;;;;;;;;;26.33;24.00;;;;;22.74;44.62;100960.94;4955388;28;59248;-53
2023/06/08 06:47:39;;;;;;;;;25.50;24.25;;;;;22.74;44.56;100950.38;4958469;28;45486;-53
2023/06/08 06:50:06;;;;;;;;;29.25;23.50;;;;;22.77;44.33;100944.91;4960528;28;45404;-56
2023/06/08 06:52:32;;;;;;;;;25.50;25.00;;;;;22.78;44.75;100947.44;4959166;28;46429;-51
2023/06/08 06:54:59;;;;;;;;;23.50;21.75;;;;;22.80;44.42;100945.53;4959747;28;45348;-57
2023/06/08 06:57:24;;;;;;;;;27.00;24.50;;;;;22.83;44.49;100945.34;4960323;28;45588;-52
2023/06/08 06:59:50;;;;;;;;;30.00;26.50;;;;;22.84;44.27;100952.34;4964739;28;45358;-54
2023/06/08 08:36:25;;;;;;;;;29.50;24.50;;;;;23.43;45.32;100913.34;4957884;28;45863;-51
2023/06/08 08:38:51;;;;;;;;;29.25;28.00;;;;;23.44;44.93;100910.59;4958648;28;45217;-51
2023/06/08 08:41:19;;;;;;;;;29.00;24.50;;;;;23.45;45.00;100908.81;4958551;28;45319;-54
2023/06/08 08:43:50;;;;;;;;;30.25;29.25;;;;;23.48;44.77;100908.63;4958547;28;46257;-54
2023/06/08 08:46:19;;;;;;;;;27.50;26.00;;;;;23.51;44.96;100902.28;4966902;28;45239;-54
2023/06/08 08:48:48;;;;;;;;;28.75;27.50;;;;;23.53;45.00;100903.03;4969278;28;45270;-51
2023/06/08 08:51:19;;;;;;;;;34.50;31.00;;;;;23.53;45.19;100900.38;4960461;28;45686;-52
2023/06/08 08:53:49;;;;;;;;;34.00;31.75;;;;;23.56;44.76;100902.78;4975156;28;45624;-53
2023/06/08 08:56:19;;;;;;;;;33.75;30.75;;;;;23.54;45.06;100902.03;4969442;28;45266;-51
2023/06/08 08:58:47;;;;;;;;;30.50;29.25;;;;;23.60;45.12;100899.00;4948510;28;45380;-47
2023/06/08 09:01:12;;;;;;;;;34.50;30.75;;;;;23.61;45.24;100893.59;4965616;28;45499;-48
2023/06/08 09:03:39;;;;;;;;;29.50;28.75;;;;;23.64;45.19;100900.50;4963316;28;45653;-51
2023/06/08 09:06:05;;;;;;;;;29.75;25.75;;;;;23.67;45.26;100899.44;4962998;28;45908;-52
2023/06/08 09:08:31;;;;;;;;;28.50;24.50;;;;;23.69;45.27;100892.25;4944368;28;45266;-51
2023/06/08 09:11:03;;;;;;;;;33.25;28.50;;;;;23.69;45.18;100885.16;4958847;28;45366;-51
2023/06/08 09:13:33;;;;;;;;;28.50;24.75;;;;;23.73;45.25;100884.00;4962673;28;46658;-49
2023/06/08 09:16:17;;;;;;;;;28.25;26.75;;;;;23.72;44.77;100879.66;4960821;28;45474;-47
2023/06/08 09:18:43;;;;;;;;;27.50;26.00;;;;;23.74;45.02;100885.69;4958341;28;45377;-48
2023/06/08 09:21:40;;;;;;;;;32.75;29.75;;;;;23.78;45.19;100888.97;4958289;28;45438;-49
2023/06/08 09:24:22;;;;;;;;;29.00;27.25;;;;;23.78;45.00;100873.09;4946297;28;46253;-48
2023/06/08 09:26:59;;;;;;;;;25.00;24.75;;;;;23.82;45.14;100879.00;4967790;28;45331;-47
2023/06/08 09:29:40;;;;;;;;;24.25;22.00;;;;;23.82;44.66;100874.56;4967011;28;45468;-48
2023/06/08 09:32:12;;;;;;;;;28.50;23.50;;;;;23.84;44.72;100879.75;4958413;28;45391;-53
2023/06/08 09:34:54;;;;;;;;;24.25;23.50;;;;;23.86;44.62;100880.50;4957698;28;46565;-51
2023/06/08 09:37:27;;;;;;;;;30.00;26.75;;;;;23.87;44.88;100876.88;4957954;28;45504;-51
2023/06/08 09:39:53;;;;;;;;;25.25;23.75;;;;;23.89;44.51;100880.28;4958322;28;45244;-49
2023/06/08 09:42:19;;;;;;;;;29.00;23.00;;;;;23.89;44.81;100883.78;4961422;28;45401;-50
2023/06/08 09:44:44;;;;;;;;;25.25;22.25;;;;;23.91;44.07;100881.88;4963038;28;45393;-49
2023/06/08 09:47:25;;;;;;;;;25.50;23.75;;;;;23.92;44.80;100870.31;4961653;28;45270;-49
2023/06/08 09:49:51;;;;;;;;;24.00;23.75;;;;;23.94;44.60;100868.41;4946060;28;45479;-50
2023/06/08 09:52:22;;;;;;;;;29.25;26.75;;;;;23.96;44.25;100873.66;4959608;28;45336;-48
2023/06/08 09:54:48;;;;;;;;;26.50;25.50;;;;;23.96;44.34;100864.84;4960242;28;46555;-48
2023/06/08 09:57:17;;;;;;;;;34.00;28.50;;;;;23.97;44.82;100866.53;4962400;28;46014;-50
2023/06/08 09:59:53;;;;;;;;;28.00;24.00;;;;;23.98;44.32;100858.50;4972243;28;45346;-47
2023/06/08 10:02:21;;;;;;;;;26.50;24.50;;;;;24.00;44.57;100867.19;4959207;28;45480;-51
2023/06/08 10:04:53;;;;;;;;;31.25;24.75;;;;;24.02;44.66;100853.84;4977273;28;46604;-52
2023/06/08 10:07:26;;;;;;;;;28.00;27.00;;;;;24.03;44.59;100856.38;4976453;28;45231;-49
2023/06/08 10:09:59;;;;;;;;;29.50;27.50;;;;;24.04;44.11;100851.91;4979775;28;44645;-52
2023/06/08 10:12:28;;;;;;;;;29.00;23.25;;;;;24.06;44.52;100850.88;4978004;28;45359;-54
2023/06/08 10:14:56;;;;;;;;;31.50;27.25;;;;;24.06;44.08;100850.88;4979440;28;45677;-50
2023/06/08 10:17:23;;;;;;;;;26.50;23.00;;;;;24.08;44.16;100848.97;4976139;28;45258;-53
2023/06/08 10:19:49;;;;;;;;;27.50;27.50;;;;;24.09;44.63;100845.34;4962842;28;45172;-53
2023/06/08 10:22:14;;;;;;;;;27.00;24.50;;;;;24.13;44.15;100855.72;4968078;28;45323;-54
2023/06/08 10:24:41;;;;;;;;;29.25;27.00;;;;;24.13;44.36;100850.44;4966496;28;45438;-53
2023/06/08 10:27:17;;;;;;;;;27.25;26.50;;;;;24.14;43.95;100847.69;4963884;28;45790;-51
2023/06/08 10:30:03;;;;;;;;;27.00;23.00;;;;;24.15;44.34;100846.72;4962036;28;45464;-52
2023/06/08 10:32:44;;;;;;;;;26.50;24.00;;;;;24.16;43.81;100835.16;4962519;28;45329;-52
2023/06/08 10:35:10;;;;;;;;;24.00;21.00;;;;;24.18;43.95;100837.72;4962737;28;46597;-52
2023/06/08 10:37:41;;;;;;;;;30.50;26.00;;;;;24.19;43.50;100824.38;4961376;28;45264;-52
2023/06/08 10:40:08;;;;;;;;;26.00;26.00;;;;;24.20;43.31;100830.50;4943893;28;45409;-51
2023/06/08 10:42:33;;;;;;;;;29.50;24.75;;;;;24.21;43.05;100829.53;4970628;28;44804;-53
2023/06/08 10:45:00;;;;;;;;;24.50;24.50;;;;;24.22;43.50;100828.59;4971171;28;46590;-52
2023/06/08 10:47:26;;;;;;;;;30.25;28.75;;;;;24.23;43.78;100825.84;4965598;28;45342;-52
2023/06/08 10:50:03;;;;;;;;;25.25;23.25;;;;;24.24;43.15;100816.09;4973678;28;45148;-52
2023/06/08 10:52:39;;;;;;;;;24.00;23.50;;;;;24.25;43.74;100817.78;4968763;28;45325;-52
2023/06/08 10:55:11;;;;;;;;;24.50;24.25;;;;;24.26;43.15;100814.19;4963670;28;46054;-51
2023/06/08 10:57:44;;;;;;;;;22.75;21.75;;;;;24.28;42.87;100811.41;4960976;28;45738;-50
2023/06/08 11:00:31;;;;;;;;;29.25;23.50;;;;;24.29;42.82;100813.09;4962965;28;45311;-49
2023/06/08 11:03:00;;;;;;;;;24.00;24.00;;;;;24.30;42.71;100807.72;4918337;28;45341;-48
2023/06/08 11:05:33;;;;;;;;;26.25;23.25;;;;;24.31;43.00;100805.91;4963518;28;46385;-49
2023/06/08 11:08:00;;;;;;;;;32.50;23.00;;;;;24.32;42.73;100800.47;4960885;28;45366;-49
2023/06/08 11:10:26;;;;;;;;;29.00;26.50;;;;;24.33;42.81;100799.53;4963030;28;45321;-50
2023/06/08 11:12:51;;;;;;;;;33.00;24.25;;;;;24.34;42.83;100801.22;4980389;28;45290;-51
2023/06/08 11:15:18;;;;;;;;;27.50;23.00;;;;;24.34;42.35;100795.94;4976083;28;45410;-52
2023/06/08 11:17:50;;;;;;;;;30.75;22.50;;;;;24.34;42.60;100787.97;4975742;28;45197;-52
2023/06/08 11:20:17;;;;;;;;;27.25;24.25;;;;;24.36;42.09;100787.88;4961934;28;45363;-51
2023/06/08 11:22:42;;;;;;;;;27.50;22.25;;;;;24.36;42.09;100799.31;4973384;28;45414;-53
2023/06/08 11:25:08;;;;;;;;;22.50;18.50;;;;;24.36;41.85;100794.03;4968204;28;46374;-53
2023/06/08 11:27:41;;;;;;;;;23.00;21.25;;;;;24.38;42.08;100792.13;4976488;28;45237;-52
2023/06/08 11:30:08;;;;;;;;;24.25;19.25;;;;;24.38;41.46;100785.94;4962185;28;45523;-51
2023/06/08 11:32:35;;;;;;;;;20.50;19.75;;;;;24.39;41.71;100787.66;4959557;28;45248;-53
2023/06/08 11:35:04;;;;;;;;;21.00;20.00;;;;;24.39;41.47;100788.50;4965178;28;46753;-50
2023/06/08 11:37:33;;;;;;;;;21.75;19.50;;;;;24.41;41.92;100784.91;4969280;28;45399;-52
2023/06/08 11:39:58;;;;;;;;;20.00;18.50;;;;;24.44;41.50;100789.97;4974732;28;45434;-51
2023/06/08 11:42:24;;;;;;;;;20.50;16.50;;;;;24.45;41.21;100775.75;4973045;28;45349;-49
2023/06/08 11:44:49;;;;;;;;;21.25;19.00;;;;;24.46;41.37;100766.84;4967976;28;46656;-51
2023/06/08 11:47:16;;;;;;;;;20.00;19.67;;;;;24.46;41.19;100762.41;4963856;28;57833;-49
2023/06/08 11:49:52;;;;;;;;;25.00;21.25;;;;;24.47;40.78;100776.50;4958600;28;45387;-49
2023/06/08 11:52:17;;;;;;;;;21.50;18.75;;;;;24.50;40.79;100768.34;4959442;28;45408;-50
2023/06/08 11:54:43;;;;;;;;;17.50;17.00;;;;;24.52;40.57;100761.13;4958568;28;46381;-48
2023/06/08 11:57:08;;;;;;;;;18.00;15.50;;;;;24.52;40.97;100769.06;4971371;28;45534;-47
2023/06/08 11:59:36;;;;;;;;;25.00;21.25;;;;;24.53;40.67;100768.09;4959648;28;45312;-50
2023/06/08 12:02:09;;;;;;;;;20.25;19.75;;;;;24.52;40.47;100759.31;4942105;28;45334;-47
2023/06/08 12:04:35;;;;;;;;;20.50;17.50;;;;;24.53;39.88;100757.47;4958912;28;46307;-49
2023/06/08 12:07:10;;;;;;;;;18.00;17.00;;;;;24.53;39.84;100755.69;4958690;28;45849;-53
2023/06/08 12:09:37;;;;;;;;;17.75;17.25;;;;;24.55;39.78;100756.44;4958730;28;45398;-48
2023/06/08 12:12:10;;;;;;;;;15.25;13.00;;;;;24.56;39.73;100746.66;4959091;28;45588;-47
2023/06/08 12:14:36;;;;;;;;;16.25;14.25;;;;;24.56;39.67;100746.66;4958633;28;47204;-49
2023/06/08 12:17:05;;;;;;;;;19.00;19.00;;;;;24.57;39.29;100743.06;4941470;28;45412;-51
2023/06/08 12:19:31;;;;;;;;;17.75;17.00;;;;;24.57;39.93;100745.72;4963006;28;45401;-48
2023/06/08 12:21:57;;;;;;;;;17.50;16.50;;;;;24.58;39.42;100736.81;4966184;28;45331;-49
2023/06/08 12:24:22;;;;;;;;;18.00;17.75;;;;;24.59;39.46;100740.28;4962842;28;45323;-52
2023/06/08 12:26:47;;;;;;;;;17.75;17.00;;;;;24.60;39.52;100741.97;4958744;28;45177;-51
2023/06/08 12:29:14;;;;;;;;;17.25;17.25;;;;;24.59;39.48;100730.56;4958505;28;45416;-48
2023/06/08 12:31:39;;;;;;;;;20.75;19.75;;;;;24.59;39.54;100725.25;4958901;28;45453;-51
2023/06/08 12:34:04;;;;;;;;;19.50;16.50;;;;;24.61;38.78;100731.28;4941011;28;45960;-50
2023/06/08 12:36:30;;;;;;;;;20.50;17.75;;;;;24.60;38.62;100724.28;4957396;28;52366;-51
2023/06/08 12:38:57;;;;;;;;;18.50;17.25;;;;;24.60;38.60;100716.34;4961850;28;45360;-49
2023/06/08 12:41:23;;;;;;;;;20.50;17.75;;;;;24.60;39.17;100726.94;4963379;28;45418;-49
2023/06/08 12:43:48;;;;;;;;;19.25;16.50;;;;;24.60;38.90;100710.19;4967684;28;46412;-50
2023/06/08 12:46:18;;;;;;;;;19.00;16.50;;;;;24.59;38.88;100717.31;4979063;28;45343;-50